North Dighton, Massachusetts
Current Conditions -  °F | °C
As of 4:52 PM on Friday 24 Oct 2014 (Local Time) from KTAN Reporting Station
Overcast Overcast  
Wind Chill: 54°   Ceiling: 2600
Heat Index: 54°   Visibility: 10mi
Dew Point: 45°   Wind: 5mph
Humidity: 72%   Direction: 320°NW
Pressure: 29.7"   Gusts: NA
Location:  41.86°N, 71.12°W
Report Text: KTAN 242052Z AUTO 32004KT 10SM OVC026 12/07 A2970 RMK AO2 SLP057 T01220072 53007
Loading
Personal Weather Stations






























Interactive Weather Map New forecast layout! Learn more

10-Day Weather Forecast

Advertisements
Track Severe Weather on mobile